Agate, North Dakota
Current Conditions -  °F | °C
As of 11:15 AM on Wednesday 26 Nov 2014 (Local Time) from K9D7 Reporting Station
Clear Clear  
Wind Chill: -15°   Ceiling: Unl
Heat Index:   Visibility: 10mi
Dew Point: -9°   Wind: 8mph
Humidity: 66%   Direction: 10°N
Pressure: 30.42"   Gusts: NA
Location:  48.62°N, 99.5°W
Report Text: K9D7 261715Z AUTO 01007KT 10SM CLR M18/M23 A3042 RMK AO2
Loading
Personal Weather Stations






























Interactive Weather Map New forecast layout! Learn more

10-Day Weather Forecast

Advertisements
Track Severe Weather on mobile